Whale Point, California Weather observations

Data are for observation ending at time listed.
 Day   Time    Ave.   Ave.  Ave.  Vector   Max.   Stn.    Total    Solar   Ave.  
  of    of     Air    Rel.  Wind   Wind    Wind   Baro.  Precip.   Rad.    Soil  
Year   Day     Temp.  Hum.  Speed  Dir.    Gust   Pres.                    Temp. 
2014   (PST)    F      %     mph   deg.    mph     mb.     in.     W/m2     F   
------------------------------------------------------------------------------
 327   12:40   60.2    77    3.2   273     10.1   1002.7    0.00     616    57.6
 327   12:50   60.3    78    3.9   260      9.3   1002.7    0.00     565    57.6
 327   13:00   60.5    77    4.4   248     10.5   1002.7    0.00     514    57.7
 327   13:10   60.9    77    4.5   229      9.5   1002.7    0.00     509    57.7
 327   13:20   60.5    78    3.4   236      7.9   1002.7    0.00     446    57.8
 327   13:30   60.2    79    2.7   227      7.7   1002.7    0.00     368    57.9
 327   13:40   60.2    78    4.0   232      8.2   1002.7    0.00     414    58.0
 327   13:50   60.8    78    5.2   231     10.0   1002.7    0.00     487    58.0
 327   14:00   61.7    76    4.7   223      7.7   1002.7    0.00     435    58.1
 327   14:10   61.0    77    5.0   226      7.8   1002.7    0.00     443    58.2
 327   14:20   60.7    79    4.9   228      7.5   1002.7    0.00     378    58.3
 327   14:30   61.4    77    5.2   226      7.4   1002.7    0.00     437    58.4
 327   14:40   61.1    77    5.4   229      9.6   1002.7    0.00     404    58.5
 327   14:50   61.8    76    5.2   236      8.7   1002.4    0.00     362    58.6
 327   15:00   61.3    76    5.6   224     10.3   1002.4    0.00     321    58.7
 327   15:10   61.0    76    5.0   228      7.2   1002.4    0.00     303    58.8
 327   15:20   60.3    76    4.1   241      6.9   1002.4    0.00     265    58.9
 327   15:30   60.9    74    3.2   236      5.3   1002.4    0.00     217    59.0
 327   15:40   61.2    74    3.9   234      7.0   1002.4    0.00     201    59.1
 327   15:50   60.6    75    4.1   230      6.7   1002.4    0.00     168    59.2
 327   16:00   60.2    76    4.3   228      6.4   1002.7    0.00     138    59.3
 327   16:10   60.1    76    3.4   237      5.8   1002.7    0.00     125    59.4
 327   16:20   60.2    74    1.8   248      3.8   1002.7    0.00      97    59.5
 327   16:30   60.4    72    0.4   345      1.5   1002.4    0.00      69    59.6
 327   16:40   59.9    74    0.3   253      1.6   1002.0    0.00      40    59.7
 327   16:50   58.7    77    1.3    16      4.2   1002.0    0.00      15    59.8
 327   17:00   57.8    79    0.7   244      2.0   1002.4    0.00       3    59.9
 327   17:10   56.8    81    1.0    70      2.2   1002.4    0.00       1    60.0
 327   17:20   56.6    82    3.2    56      7.3   1002.4    0.00       0    60.0
 327   17:30   56.5    83    5.3    51      7.2   1002.4    0.00       0    60.1
 327   17:40   56.6    81    3.4    56      7.2   1002.4    0.00       0    60.2
 327   17:50   56.9    78    1.6    29      3.7   1002.4    0.00       0    60.2
 327   18:00   57.7    74    2.6    76      4.9   1002.7    0.00       0    60.2
 327   18:10   57.7    72    2.7   350      7.2   1002.7    0.00       0    60.2
 327   18:20   57.6    74    1.9   313      5.2   1002.7    0.00       0    60.3
 327   18:30   56.8    76    1.1   187      3.7   1002.4    0.00       0    60.3
 327   18:40   55.5    79    0.8   145      2.4   1002.4    0.00       0    60.3
 327   18:50   55.0    81    2.2   143      4.1   1002.7    0.00       0    60.3
 327   19:00   54.6    83    2.9   142      4.8   1002.7    0.00       0    60.4
 327   19:10   55.1    78    2.8    69      5.8   1002.7    0.00       0    60.3
 327   19:20   55.9    64    3.9    77      8.2   1002.7    0.00       0    60.3
 327   19:30   54.9    62    6.1    50      8.5   1002.7    0.00       0    60.3
 327   19:40   55.2    62    3.3    74      6.9   1002.7    0.00       0    60.3
 327   19:50   56.7    53    2.6    86      4.8   1002.7    0.00       0    60.3
 327   20:00   56.7    50    2.2   120      4.3   1003.1    0.00       0    60.3
 327   20:10   56.3    57    0.6    40      1.8   1003.4    0.00       0    60.2
 327   20:20   56.6    63    1.2    84      2.6   1003.4    0.00       0    60.2
 327   20:30   56.4    60    2.3    86      5.3   1003.1    0.00       0    60.2
 327   20:40   56.5    45    3.4    80      6.2   1003.1    0.00       0    60.2
 327   20:50   57.1    50    1.8   109      3.4   1003.1    0.00       0    60.1
 327   21:00   56.4    39    3.8    73      8.0   1003.1    0.00       0    60.1
 327   21:10   56.6    33    3.9    81      8.7   1003.1    0.00       0    60.1
 327   21:20   56.2    41    2.1   145      4.7   1003.1    0.00       0    60.0
 327   21:30   55.8    45    1.6    74      3.3   1003.1    0.00       0    60.0
 327   21:40   55.9    53    1.8    37      3.7   1003.1    0.00       0    60.0
 327   21:50   57.5    27    1.7    79      6.1   1003.1    0.00       0    59.9
 327   22:00   58.4    20    3.7    66      7.4   1003.1    0.00       0    59.9
 327   22:10   59.1    21    3.4    90      8.0   1003.1    0.00       0    59.8
 327   22:20   57.1    46    1.0   163      2.3   1003.4    0.00       0    59.8
 327   22:30   56.7    41    1.6    72      3.6   1003.4    0.00       0    59.7
 327   22:40   55.8    49    2.9   134      4.9   1003.4    0.00       0    59.7
 327   22:50   55.3    47    2.0    85      3.9   1003.4    0.00       0    59.6
 327   23:00   55.7    33    1.2    23      3.9   1003.4    0.00       0    59.6
 327   23:10   55.8    36    1.6   126      4.1   1003.4    0.00       0    59.5
 327   23:20   56.2    34    1.3    46      2.2   1003.4    0.00       0    59.5
 327   23:30   56.7    28    1.3    71      3.2   1003.4    0.00       0    59.5
 327   23:40   56.9    24    0.9   122      3.0   1003.4    0.00       0    59.4
 327   23:50   57.4    25    1.3   160      4.2   1003.4    0.00       0    59.3
 328    0:00   57.3    27    1.4   142      4.3   1003.4    0.00       0    59.3
 328    0:10   56.9    27    1.7   142      3.6   1003.1    0.00       0    59.2
 328    0:20   58.9    15    2.1    81      4.1   1003.1    0.00       0    59.2
 328    0:30   59.9    15    1.4   113      2.9   1003.1    0.00       0    59.1
 328    0:40   58.7    20    2.0   148      3.7   1003.1    0.00       0    59.1
 328    0:50   58.2    22    1.6   119      3.4   1003.1    0.00       0    59.0
 328    1:00   58.1    21    1.4   133      3.4   1003.1    0.00       0    58.9
 328    1:10   57.7    20    1.9   101      4.5   1002.7    0.00       0    58.8
 328    1:20   58.0    17    1.9    68      4.4   1002.7    0.00       0    58.8
 328    1:30   58.1    16    1.0   126      3.4   1002.7    0.00       0    58.7
 328    1:40   58.4    17    0.9    82      2.0   1002.7    0.00       0    58.7
 328    1:50   58.8    16    1.0   116      2.9   1002.7    0.00       0    58.6
 328    2:00   58.3    18    1.0   150      2.3   1002.7    0.00       0    58.5
 328    2:10   58.0    21    0.5   196      1.8   1002.7    0.00       0    58.5
 328    2:20   56.6    26    1.8   153      4.0   1002.7    0.00       0    58.4
 328    2:30   55.4    29    1.1   146      2.7   1002.7    0.00       0    58.4
 328    2:40   56.2    28    0.9    95      3.1   1002.7    0.00       0    58.3
 328    2:50   56.7    24    0.8    29      2.0   1002.7    0.00       0    58.3
 328    3:00   57.6    22    0.5    34      2.6   1002.7    0.00       0    58.2
 328    3:10   58.8    20    1.1    34      2.0   1002.7    0.00       0    58.2
 328    3:20   59.5    24    0.5    66      2.2   1002.7    0.00       0    58.1
 328    3:30   60.1    22    0.3    98      2.1   1002.7    0.00       0    58.0
 328    3:40   60.0    25    1.7   104      3.7   1002.7    0.00       0    58.0
 328    3:50   59.6    20    1.7    98      3.8   1002.7    0.00       0    57.9
 328    4:00   58.7    24    1.4   161      4.1   1002.4    0.00       0    57.9
 328    4:10   58.7    19    1.9    70      5.3   1002.4    0.00       0    57.8
 328    4:20   60.8    15    2.5   124      8.0   1002.4    0.00       0    57.7
 328    4:30   59.0    22    1.8   181      4.3   1002.4    0.00       0    57.7
 328    4:40   58.9    25    1.1   108      4.1   1002.7    0.00       0    57.6
 328    4:50   59.9    27    1.7   116      4.5   1002.7    0.00       0    57.6
 328    5:00   58.9    29    3.3   132      7.0   1002.7    0.00       0    57.5
 328    5:10   58.7    30    1.7   104      5.4   1002.7    0.00       0    57.4
 328    5:20   59.5    25    2.2    83      5.6   1002.7    0.00       0    57.4
 328    5:30   59.9    15    1.0    82      3.0   1003.1    0.00       0    57.3
 328    5:40   59.8    16    1.1     8      3.9   1003.1    0.00       0    57.3
 328    5:50   59.3    15    1.2    99      2.9   1003.1    0.00       0    57.2
 328    6:00   58.7    20    1.9   137      3.0   1003.1    0.00       0    57.2
 328    6:10   58.2    22    1.1   100      2.5   1003.1    0.00       0    57.1
 328    6:20   58.6    24    1.4   137      3.0   1003.4    0.00       0    57.1
 328    6:30   57.9    22    2.8   148      5.2   1003.4    0.00       0    57.0
 328    6:40   58.6    17    1.4   129      3.9   1003.4    0.00       1    57.0
 328    6:50   58.5    20    2.8   191      7.9   1003.7    0.00       3    56.9
 328    7:00   57.3    26    1.8   149      4.2   1003.7    0.00       5    56.9
 328    7:10   58.1    23    1.6   342      5.1   1003.7    0.00       9    56.8
 328    7:20   61.1    13    3.2   345      6.8   1003.7    0.00      12    56.8
 328    7:30   59.3    24    2.6   159      5.3   1004.1    0.00      14    56.7
 328    7:40   56.9    33    3.1   165      6.4   1004.1    0.00      16    56.7
 328    7:50   56.2    36    1.7   150      3.9   1004.4    0.00      18    56.6
 328    8:00   57.0    34    1.9    66      6.1   1004.4    0.00      19    56.6
 328    8:10   56.9    35    1.8    57      5.6   1004.4    0.00      20    56.6
 328    8:20   57.9    32    1.7    17      3.9   1004.7    0.00      21    56.5
 328    8:30   58.6    30    2.1    66      4.5   1004.7    0.00     120    56.5
 328    8:40   60.6    24    1.4    27      2.6   1004.7    0.00     273    56.4
 328    8:50   61.7    25    0.8   198      2.9   1005.1    0.00     321    56.4
 328    9:00   62.5    28    1.8   190      2.9   1005.1    0.00     348    56.3
 328    9:10   62.9    30    2.1   173      3.5   1005.1    0.00     374    56.3
 328    9:20   62.5    31    2.0   199      4.7   1005.1    0.00     401    56.2
 328    9:30   61.6    32    1.4   188      3.8   1005.4    0.00     425    56.2
 328    9:40   62.1    34    2.7   197      3.8   1005.4    0.00     446    56.2
 328    9:50   61.7    32    2.8   193      4.8   1005.4    0.00     470    56.2
 328   10:00   62.1    36    3.5   200      7.2   1005.8    0.00     491    56.1
 328   10:10   61.1    38    3.8   199      7.0   1005.8    0.00     509    56.1
 328   10:20   61.1    41    3.7   202      6.4   1005.8    0.00     532    56.1
 328   10:30   60.8    44    4.4   213      7.2   1005.8    0.00     548    56.1
 328   10:40   60.2    49    4.3   208      7.1   1005.8    0.00     539    56.1
 328   10:50   60.3    57    4.0   203      6.9   1005.8    0.00     568    56.1
 328   11:00   60.2    62    4.9   215      8.0   1006.1    0.00     580    56.1
 328   11:10   60.2    58    4.3   216      7.1   1006.1    0.00     587    56.1
 328   11:20   60.4    60    4.8   221      6.8   1005.8    0.00     590    56.2
 328   11:30   60.9    64    4.6   215      7.0   1005.8    0.00     592    56.2
 328   11:40   60.6    63    4.6   218      7.3   1005.8    0.00     586    56.2
 328   11:50   61.4    58    4.8   222      6.9   1005.4    0.00     600    56.2
 328   12:00   61.9    55    4.8   211      8.4   1005.4    0.00     600    56.3
 328   12:10   62.0    55    4.7   217      6.9   1005.1    0.00     600    56.3
 328   12:20   62.3    58    5.2   211      7.7   1005.1    0.00     596    56.4
 328   12:30   61.9    62    5.8   208      9.2   1004.7    0.00     590    56.4

Return to Whale Point graphs page.


Western Regional Climate Center,wrcc@dri.edu